Colin Jacob — ZCTC3 — position and weather

sailwx.info

Track history (hours):
 
Tides and Currents Weather Stations Pressure Air Temp Water Temp Dewpoint Dewpoint Depression Visibility Wind Speed Wind Dir Waves Ship Positions

Colin Jacob

Last reported at 2018-Feb-12 02:46 UTC. Time now 2018-Feb-20 05:19 UTC.
Position N 25°25' W 079°37'.
Warning: this ship's position is 8 days out of date.

Length 228 m; draft 11.4 m.

Type: Tanker. MMSI: 319767000.

Date/timePositionNaut miles runAvg speedWind from/ knotsBaromVisibWave heightAir tempDewpointWater temp
2018-Feb-12 02:46N 25°25' W 079°37'511.4
2018-Feb-12 02:21N 25°30' W 079°36'411.4
2018-Feb-12 02:00N 25°34' W 079°36'611.3
2018-Feb-12 01:29N 25°40' W 079°35'1111.4
2018-Feb-12 00:29N 25°51' W 079°35'511.1
2018-Feb-12 00:00N 25°57' W 079°35'611.0
2018-Feb-11 23:29N 26°02' W 079°34'611.4
2018-Feb-11 23:00N 26°07' W 079°31'611.1
2018-Feb-11 22:28N 26°12' W 079°27'511.2
2018-Feb-11 22:00N 26°16' W 079°23'  
Track history (hours):
 
Tides and Currents Weather Stations Pressure Air Temp Water Temp Dewpoint Dewpoint Depression Visibility Wind Speed Wind Dir Waves Ship Positions

Colin Jacob

Last reported at 2018-Feb-12 02:46 UTC. Time now 2018-Feb-20 05:19 UTC.
Position N 25°25' W 079°37'.
Warning: this ship's position is 8 days out of date.

Length 228 m; draft 11.4 m.

Type: Tanker. MMSI: 319767000.

Date/timePositionNaut miles runAvg speedWind from/ knotsBaromVisibWave heightAir tempDewpointWater temp
2018-Feb-12 02:46N 25°25' W 079°37'511.4
2018-Feb-12 02:21N 25°30' W 079°36'411.4
2018-Feb-12 02:00N 25°34' W 079°36'611.3
2018-Feb-12 01:29N 25°40' W 079°35'1111.4
2018-Feb-12 00:29N 25°51' W 079°35'511.1
2018-Feb-12 00:00N 25°57' W 079°35'611.0
2018-Feb-11 23:29N 26°02' W 079°34'611.4
2018-Feb-11 23:00N 26°07' W 079°31'611.1
2018-Feb-11 22:28N 26°12' W 079°27'511.2
2018-Feb-11 22:00N 26°16' W 079°23'  

Dump ship's entire track history